createdAt,value
2022-09-23T00:01:26.637Z,35.38
2022-09-23T00:03:54.793Z,35.15
2022-09-23T00:06:24.408Z,35.22
2022-09-23T00:08:53.711Z,35.42
2022-09-23T00:11:24.250Z,34.20
2022-09-23T00:13:54.277Z,35.63
2022-09-23T00:16:25.677Z,35.72
2022-09-23T00:18:53.512Z,35.55
2022-09-23T00:21:22.827Z,36.85
2022-09-23T00:23:51.665Z,35.75
2022-09-23T00:26:23.017Z,36.22
2022-09-23T00:28:51.648Z,35.25
2022-09-23T00:31:21.673Z,34.92
2022-09-23T00:33:54.800Z,35.83
2022-09-23T00:36:23.018Z,34.90
2022-09-23T00:38:50.904Z,35.35
2022-09-23T00:41:20.121Z,35.13
2022-09-23T00:43:50.022Z,35.92
2022-09-23T00:46:21.529Z,34.83
2022-09-23T00:48:54.518Z,35.20
2022-09-23T00:51:25.751Z,34.33
2022-09-23T00:53:54.197Z,34.07
2022-09-23T00:56:24.557Z,34.85
2022-09-23T00:58:53.195Z,35.38
2022-09-23T01:01:21.894Z,34.30
2022-09-23T01:03:51.168Z,34.20
2022-09-23T01:06:19.143Z,35.30
2022-09-23T01:08:48.563Z,35.97
2022-09-23T01:11:31.965Z,35.55
2022-09-23T01:14:11.538Z,37.67
2022-09-23T01:16:45.055Z,36.17
2022-09-23T01:19:35.765Z,37.00
2022-09-23T01:22:11.589Z,37.97
2022-09-23T01:25:13.369Z,36.33
2022-09-23T01:28:08.737Z,35.40
2022-09-23T01:30:45.616Z,35.38
2022-09-23T01:33:21.309Z,35.20
2022-09-23T01:36:09.959Z,33.08
2022-09-23T01:38:44.804Z,34.70
2022-09-23T01:41:23.284Z,32.72
2022-09-23T01:43:57.126Z,33.80
2022-09-23T01:46:30.997Z,34.35
2022-09-23T01:49:07.781Z,34.17
2022-09-23T01:51:40.276Z,35.80
2022-09-23T01:54:15.726Z,33.58
2022-09-23T01:56:49.273Z,35.05
2022-09-23T01:59:22.675Z,34.75
2022-09-23T02:01:57.605Z,35.22
2022-09-23T02:04:31.343Z,35.25
2022-09-23T02:07:04.522Z,34.90
2022-09-23T02:09:37.603Z,36.78
2022-09-23T02:12:12.553Z,36.10
2022-09-23T02:14:46.522Z,34.50
2022-09-23T02:17:23.118Z,33.95
2022-09-23T02:19:56.316Z,35.10
2022-09-23T02:22:29.239Z,34.95
2022-09-23T02:24:58.170Z,34.53
2022-09-23T02:27:33.005Z,33.67
2022-09-23T02:30:08.874Z,34.00
2022-09-23T02:32:48.149Z,33.90
2022-09-23T02:35:22.580Z,32.55
2022-09-23T02:37:58.680Z,35.28
2022-09-23T02:40:35.577Z,34.00
2022-09-23T02:43:10.078Z,35.88
2022-09-23T02:45:39.198Z,34.92
2022-09-23T02:48:14.682Z,35.67
2022-09-23T02:50:42.630Z,34.25
2022-09-23T02:53:11.425Z,36.20
2022-09-23T02:55:41.348Z,35.15
2022-09-23T02:58:10.877Z,34.33
2022-09-23T03:00:50.046Z,34.63
2022-09-23T03:03:34.894Z,34.70
2022-09-23T03:06:15.133Z,33.25
2022-09-23T03:08:50.439Z,33.10
2022-09-23T03:11:19.163Z,33.35
2022-09-23T03:14:06.649Z,34.40
2022-09-23T03:16:41.080Z,31.85
2022-09-23T03:19:24.592Z,32.03
2022-09-23T03:22:00.721Z,33.55
2022-09-23T03:24:31.252Z,34.53
2022-09-23T03:27:03.024Z,32.90
2022-09-23T03:29:32.555Z,34.20
2022-09-23T03:32:01.530Z,34.92
2022-09-23T03:34:34.878Z,35.33
2022-09-23T03:37:08.664Z,34.67
2022-09-23T03:39:41.118Z,33.95
2022-09-23T03:42:16.719Z,34.10
2022-09-23T03:44:45.910Z,35.60
2022-09-23T03:47:15.148Z,33.85
2022-09-23T03:49:48.307Z,35.83
2022-09-23T03:52:17.187Z,36.65
2022-09-23T03:54:52.970Z,37.25
2022-09-23T03:57:22.480Z,35.80
2022-09-23T03:59:50.515Z,37.33
2022-09-23T04:02:19.355Z,37.53
2022-09-23T04:04:48.886Z,37.38
2022-09-23T04:07:17.305Z,37.40
2022-09-23T04:09:45.847Z,37.45
2022-09-23T04:12:16.110Z,37.90
2022-09-23T04:14:44.809Z,38.17
2022-09-23T04:17:14.172Z,37.63
2022-09-23T04:19:42.526Z,38.72
2022-09-23T04:22:12.024Z,38.05
2022-09-23T04:24:40.308Z,39.58
2022-09-23T04:27:08.481Z,38.80
2022-09-23T04:29:36.367Z,40.72
2022-09-23T04:32:04.211Z,39.38
2022-09-23T04:34:32.344Z,40.10
2022-09-23T04:37:00.148Z,39.50
2022-09-23T04:39:29.447Z,39.53
2022-09-23T04:41:57.693Z,39.08
2022-09-23T04:44:28.076Z,41.28
2022-09-23T04:46:56.260Z,40.85
2022-09-23T04:49:24.595Z,41.70
2022-09-23T04:51:52.618Z,41.45
2022-09-23T04:54:20.448Z,41.30
2022-09-23T04:56:49.978Z,41.95
2022-09-23T04:59:17.916Z,42.70
2022-09-23T05:01:45.855Z,44.17
2022-09-23T05:04:14.825Z,42.90
2022-09-23T05:06:43.906Z,43.70
2022-09-23T05:09:16.125Z,45.20
2022-09-23T05:11:44.976Z,42.42
2022-09-23T05:14:14.276Z,42.75
2022-09-23T05:16:42.322Z,45.35
2022-09-23T05:19:11.707Z,45.58
2022-09-23T05:21:39.528Z,45.50
2022-09-23T05:24:07.680Z,45.30
2022-09-23T05:26:35.773Z,45.38
2022-09-23T05:29:03.840Z,43.58
2022-09-23T05:31:33.286Z,44.10
2022-09-23T05:34:03.881Z,46.60
2022-09-23T05:36:37.869Z,46.78
2022-09-23T05:39:08.053Z,47.80
2022-09-23T05:41:36.470Z,48.33
2022-09-23T05:44:04.418Z,47.63
2022-09-23T05:46:34.269Z,49.00
2022-09-23T05:49:03.738Z,50.58
2022-09-23T05:51:33.350Z,51.45
2022-09-23T05:54:03.953Z,51.65
2022-09-23T05:56:33.054Z,53.47
2022-09-23T05:59:02.495Z,53.35
2022-09-23T06:01:33.883Z,56.50
2022-09-23T06:04:05.874Z,58.45
2022-09-23T06:06:36.429Z,58.40
2022-09-23T06:09:05.899Z,57.30
2022-09-23T06:11:36.953Z,58.70
2022-09-23T06:14:05.970Z,56.67
2022-09-23T06:16:35.794Z,57.35
2022-09-23T06:19:07.000Z,56.40
2022-09-23T06:21:37.989Z,58.72
2022-09-23T06:24:08.338Z,57.33
2022-09-23T06:26:37.742Z,60.25
2022-09-23T06:29:11.439Z,57.55
2022-09-23T06:31:43.193Z,54.88
2022-09-23T06:34:15.050Z,55.83
2022-09-23T06:36:46.386Z,55.35
2022-09-23T06:39:15.309Z,54.30
2022-09-23T06:41:43.979Z,54.08
2022-09-23T06:44:12.510Z,55.42
2022-09-23T06:46:40.432Z,55.35
2022-09-23T06:49:08.272Z,52.70
2022-09-23T06:51:38.016Z,54.45
2022-09-23T06:54:06.241Z,54.33
2022-09-23T06:56:38.704Z,54.40
2022-09-23T06:59:10.518Z,55.83
2022-09-23T07:01:39.003Z,54.25
2022-09-23T07:04:07.661Z,51.08
2022-09-23T07:06:37.542Z,53.50
2022-09-23T07:09:07.081Z,51.90
2022-09-23T07:11:34.938Z,50.15
2022-09-23T07:14:03.495Z,48.83
2022-09-23T07:16:32.986Z,49.53
2022-09-23T07:19:00.792Z,46.30
2022-09-23T07:21:29.205Z,47.88
2022-09-23T07:23:58.877Z,45.38
2022-09-23T07:26:27.017Z,44.95
2022-09-23T07:28:56.547Z,43.20
2022-09-23T07:31:37.569Z,40.67
2022-09-23T07:34:07.957Z,42.17
2022-09-23T07:36:37.767Z,42.95
2022-09-23T07:39:07.660Z,41.72
2022-09-23T07:41:36.541Z,42.78
2022-09-23T07:44:06.036Z,43.03
2022-09-23T07:46:36.983Z,48.22
2022-09-23T07:49:06.523Z,38.75
2022-09-23T07:51:36.809Z,40.40
2022-09-23T07:54:08.779Z,39.95
2022-09-23T07:56:38.107Z,41.53
2022-09-23T07:59:09.055Z,40.58
2022-09-23T08:01:39.001Z,37.35
2022-09-23T08:04:09.511Z,43.60
2022-09-23T08:06:42.265Z,37.47
2022-09-23T08:09:12.867Z,38.60
2022-09-23T08:11:41.941Z,36.97
2022-09-23T08:14:10.744Z,35.38
2022-09-23T08:16:39.801Z,36.88
2022-09-23T08:19:08.067Z,37.67
2022-09-23T08:21:39.484Z,38.65
2022-09-23T08:24:09.828Z,38.20
2022-09-23T08:26:39.032Z,36.45
2022-09-23T08:29:09.787Z,36.67
2022-09-23T08:31:38.408Z,37.25
2022-09-23T08:34:06.713Z,35.08
2022-09-23T08:36:35.717Z,31.80
2022-09-23T08:39:04.417Z,32.65
2022-09-23T08:41:41.519Z,31.63
2022-09-23T08:44:14.802Z,28.00
2022-09-23T08:46:47.622Z,24.98
2022-09-23T08:49:25.314Z,28.45
2022-09-23T08:51:55.977Z,29.23
2022-09-23T08:54:29.256Z,26.05
2022-09-23T08:57:01.231Z,20.55
2022-09-23T08:59:38.858Z,21.88
2022-09-23T09:02:14.556Z,21.52
2022-09-23T09:04:45.475Z,21.15
2022-09-23T09:07:35.592Z,21.88
2022-09-23T09:10:11.140Z,18.30
2022-09-23T09:12:44.673Z,18.58
2022-09-23T09:15:16.317Z,19.27
2022-09-23T09:17:54.886Z,18.90
2022-09-23T09:20:34.267Z,18.40
2022-09-23T09:23:13.737Z,17.20
2022-09-23T09:25:45.348Z,15.57
2022-09-23T09:28:26.674Z,14.00
2022-09-23T09:30:58.022Z,15.43
2022-09-23T09:33:33.216Z,16.60
2022-09-23T09:36:19.634Z,14.05
2022-09-23T09:38:47.934Z,10.85
2022-09-23T09:41:17.814Z,11.20
2022-09-23T09:43:52.454Z,11.73
2022-09-23T09:46:34.990Z,11.65
2022-09-23T09:49:06.564Z,13.88
2022-09-23T09:51:35.524Z,10.70
2022-09-23T09:54:18.059Z,11.80
2022-09-23T09:59:23.429Z,12.60
2022-09-23T10:02:11.777Z,12.95
2022-09-23T10:04:40.069Z,11.07
2022-09-23T10:07:13.038Z,10.85
2022-09-23T10:09:48.381Z,10.98
2022-09-23T10:12:19.338Z,12.23
2022-09-23T10:14:51.399Z,14.13
2022-09-23T10:17:22.768Z,11.57
2022-09-23T10:19:58.062Z,9.95
2022-09-23T10:22:29.898Z,9.93
2022-09-23T10:25:03.313Z,9.38
2022-09-23T10:27:34.521Z,8.18
2022-09-23T10:30:06.474Z,7.82
2022-09-23T10:32:39.929Z,10.75
2022-09-23T10:35:16.421Z,8.70
2022-09-23T10:37:48.363Z,7.40
2022-09-23T10:40:37.293Z,6.75
2022-09-23T10:43:46.197Z,6.30
2022-09-23T10:46:39.715Z,6.82
2022-09-23T10:49:58.751Z,7.95
2022-09-23T10:52:43.688Z,9.82
2022-09-23T10:55:26.447Z,9.23
2022-09-23T10:58:09.276Z,8.10
2022-09-23T11:00:46.314Z,6.93
2022-09-23T11:03:54.067Z,6.70
2022-09-23T11:06:31.855Z,6.18
2022-09-23T11:09:26.435Z,5.80
2022-09-23T11:12:09.988Z,6.22
2022-09-23T11:15:00.519Z,5.38
2022-09-23T11:17:54.539Z,4.55
2022-09-23T11:20:40.568Z,4.10
2022-09-23T11:23:37.035Z,3.50
2022-09-23T11:26:17.078Z,4.43
2022-09-23T11:29:04.400Z,4.28
2022-09-23T11:31:39.555Z,3.20
2022-09-23T11:34:34.144Z,3.70
2022-09-23T11:37:08.891Z,3.72
2022-09-23T11:39:43.474Z,3.85
2022-09-23T11:42:18.427Z,3.58
2022-09-23T11:44:53.658Z,4.15
2022-09-23T11:47:26.586Z,3.05
2022-09-23T11:50:01.116Z,3.83
2022-09-23T11:52:34.613Z,3.60
2022-09-23T11:55:20.082Z,4.25
2022-09-23T11:57:51.998Z,4.55
2022-09-23T12:00:23.134Z,3.90
2022-09-23T12:03:05.458Z,4.32
2022-09-23T12:05:39.532Z,3.90
2022-09-23T12:08:18.663Z,3.42
2022-09-23T12:10:54.435Z,4.78
2022-09-23T12:13:27.578Z,7.03
2022-09-23T12:16:14.711Z,5.00
2022-09-23T12:19:04.103Z,4.68
2022-09-23T12:21:51.861Z,4.57
2022-09-23T12:24:35.550Z,4.93
2022-09-23T12:27:10.951Z,4.80
2022-09-23T12:29:41.738Z,3.65
2022-09-23T12:32:18.618Z,4.80
2022-09-23T12:34:51.988Z,4.00
2022-09-23T12:37:27.507Z,3.50
2022-09-23T12:40:00.912Z,3.53
2022-09-23T12:42:31.308Z,3.95
2022-09-23T12:45:19.870Z,3.70
2022-09-23T12:47:47.973Z,3.40
2022-09-23T12:50:51.928Z,3.80
2022-09-23T12:54:23.747Z,3.80
2022-09-23T12:57:11.732Z,4.00
2022-09-23T12:59:58.596Z,4.22
2022-09-23T13:02:34.596Z,4.53
2022-09-23T13:05:28.250Z,4.25
2022-09-23T13:08:01.168Z,4.10
2022-09-23T13:10:33.006Z,3.70
2022-09-23T13:13:03.360Z,4.18
2022-09-23T13:15:34.925Z,4.20
2022-09-23T13:18:25.117Z,4.35
2022-09-23T13:20:54.903Z,3.83
2022-09-23T13:23:24.750Z,4.13
2022-09-23T13:25:55.289Z,3.42
2022-09-23T13:28:36.861Z,3.67
2022-09-23T13:31:07.155Z,5.40
2022-09-23T13:33:43.220Z,10.68
2022-09-23T13:36:15.030Z,10.90
2022-09-23T13:38:43.669Z,5.65
2022-09-23T13:41:16.197Z,3.80
2022-09-23T13:43:49.066Z,3.85
2022-09-23T13:46:19.247Z,4.03
2022-09-23T13:48:49.870Z,4.10
2022-09-23T13:51:24.635Z,4.00
2022-09-23T13:53:55.282Z,3.88
2022-09-23T13:56:25.270Z,3.80
2022-09-23T13:58:55.818Z,4.40
2022-09-23T14:01:30.857Z,3.70
2022-09-23T14:03:59.489Z,4.10
2022-09-23T14:06:31.641Z,5.15
2022-09-23T14:09:03.190Z,4.47
2022-09-23T14:11:35.168Z,4.35
2022-09-23T14:14:07.134Z,6.15
2022-09-23T14:16:39.291Z,4.75
2022-09-23T14:21:37.634Z,4.50
2022-09-23T14:24:15.654Z,3.42
2022-09-23T14:26:47.801Z,8.38
2022-09-23T14:29:19.247Z,12.57
2022-09-23T14:31:56.648Z,11.98
2022-09-23T14:34:46.958Z,6.10
2022-09-23T14:37:40.886Z,5.25
2022-09-23T14:40:13.857Z,6.13
2022-09-23T14:42:44.512Z,12.57
2022-09-23T14:45:18.545Z,18.90
2022-09-23T14:47:50.410Z,14.60
2022-09-23T14:50:39.289Z,8.65
2022-09-23T14:53:33.570Z,9.65
2022-09-23T14:56:22.030Z,6.38
2022-09-23T14:58:53.472Z,6.47
2022-09-23T15:01:41.083Z,4.70
2022-09-23T15:04:18.254Z,3.95
2022-09-23T15:06:51.171Z,3.92
2022-09-23T15:09:24.607Z,5.00
2022-09-23T15:11:54.862Z,3.20
2022-09-23T15:14:39.818Z,3.13
2022-09-23T15:17:32.450Z,3.33
2022-09-23T15:20:03.349Z,2.97
2022-09-23T15:22:31.334Z,3.67
2022-09-23T15:25:17.369Z,3.60
2022-09-23T15:27:57.642Z,3.97
2022-09-23T15:30:26.050Z,4.13
2022-09-23T15:32:55.602Z,4.03
2022-09-23T15:35:26.610Z,4.32
2022-09-23T15:37:58.160Z,4.63
2022-09-23T15:40:28.123Z,5.50
2022-09-23T15:42:58.641Z,5.25
2022-09-23T15:45:33.678Z,5.60
2022-09-23T15:48:08.284Z,5.03
2022-09-23T15:50:37.409Z,5.60
2022-09-23T15:53:06.176Z,5.90
2022-09-23T15:55:34.309Z,5.85
2022-09-23T15:58:02.382Z,6.63
2022-09-23T16:00:30.595Z,6.00
2022-09-23T16:02:58.430Z,6.05
2022-09-23T16:05:34.106Z,6.80
2022-09-23T16:08:08.485Z,7.45
2022-09-23T16:10:37.392Z,6.57
2022-09-23T16:13:08.835Z,8.25
2022-09-23T16:15:39.010Z,10.63
2022-09-23T16:18:07.969Z,16.67
2022-09-23T16:20:38.652Z,12.73
2022-09-23T16:23:08.605Z,9.75
2022-09-23T16:25:37.953Z,8.15
2022-09-23T16:28:05.826Z,6.95
2022-09-23T16:30:35.100Z,7.47
2022-09-23T16:33:02.965Z,7.53
2022-09-23T16:35:41.733Z,6.50
2022-09-23T16:38:09.910Z,7.38
2022-09-23T16:40:37.762Z,13.65
2022-09-23T16:43:06.066Z,9.23
2022-09-23T16:45:34.670Z,9.27
2022-09-23T16:48:03.075Z,8.90
2022-09-23T16:50:31.926Z,8.45
2022-09-23T16:53:01.522Z,8.15
2022-09-23T16:55:29.562Z,8.30
2022-09-23T16:57:57.375Z,9.05
2022-09-23T17:00:43.038Z,7.90
2022-09-23T17:03:30.862Z,7.05
2022-09-23T17:06:00.689Z,7.90
2022-09-23T17:08:32.383Z,8.50
2022-09-23T17:11:01.760Z,8.95
2022-09-23T17:13:31.083Z,8.88
2022-09-23T17:15:59.298Z,9.50
2022-09-23T17:18:27.951Z,8.38
2022-09-23T17:21:00.321Z,9.57
2022-09-23T17:23:28.593Z,9.10
2022-09-23T17:25:57.912Z,9.20
2022-09-23T17:28:26.320Z,11.18
2022-09-23T17:30:58.832Z,15.02
2022-09-23T17:35:55.081Z,18.83
2022-09-23T17:38:27.969Z,20.08
2022-09-23T17:41:01.146Z,22.27
2022-09-23T17:43:31.576Z,21.42
2022-09-23T17:46:05.199Z,24.85
2022-09-23T17:48:36.059Z,22.80
2022-09-23T17:51:05.668Z,23.35
2022-09-23T17:53:35.954Z,38.17
2022-09-23T17:56:07.740Z,31.25
2022-09-23T17:58:37.518Z,18.15
2022-09-23T18:01:06.485Z,20.73
2022-09-23T18:03:34.409Z,23.85
2022-09-23T18:06:10.157Z,30.45
2022-09-23T18:08:39.262Z,37.08
2022-09-23T18:11:19.435Z,37.00
2022-09-23T18:13:52.446Z,28.70
2022-09-23T18:16:22.422Z,27.42
2022-09-23T18:18:51.938Z,26.73
2022-09-23T18:21:20.514Z,25.60
2022-09-23T18:23:48.704Z,27.00
2022-09-23T18:26:19.563Z,25.52
2022-09-23T18:28:48.060Z,26.60
2022-09-23T18:31:16.809Z,25.83
2022-09-23T18:33:49.277Z,27.20
2022-09-23T18:36:17.235Z,25.60
2022-09-23T18:38:45.836Z,24.67
2022-09-23T18:41:14.641Z,23.15
2022-09-23T18:43:48.336Z,23.15
2022-09-23T18:46:18.584Z,24.13
2022-09-23T18:49:04.471Z,23.67
2022-09-23T18:51:34.608Z,24.65
2022-09-23T18:54:05.317Z,25.40
2022-09-23T18:56:37.227Z,24.05
2022-09-23T18:59:08.515Z,25.63
2022-09-23T19:01:36.782Z,24.50
2022-09-23T19:04:05.089Z,25.10
2022-09-23T19:06:34.679Z,25.80
2022-09-23T19:09:02.995Z,28.92
2022-09-23T19:11:31.848Z,29.55
2022-09-23T19:14:02.104Z,27.00
2022-09-23T19:16:32.210Z,25.65
2022-09-23T19:19:00.408Z,26.20
2022-09-23T19:21:29.686Z,26.45
2022-09-23T19:24:03.344Z,27.50
2022-09-23T19:26:34.118Z,26.83
2022-09-23T19:29:04.256Z,28.90
2022-09-23T19:31:35.865Z,26.15
2022-09-23T19:34:10.046Z,31.05
2022-09-23T19:36:39.775Z,32.85
2022-09-23T19:39:09.937Z,33.45
2022-09-23T19:41:38.026Z,33.42
2022-09-23T19:44:07.649Z,36.17
2022-09-23T19:46:39.529Z,33.42
2022-09-23T19:49:08.676Z,32.40
2022-09-23T19:51:36.898Z,31.20
2022-09-23T19:54:07.133Z,35.35
2022-09-23T19:56:35.722Z,35.85
2022-09-23T19:59:05.780Z,31.35
2022-09-23T20:01:35.090Z,32.20
2022-09-23T20:04:05.570Z,31.67
2022-09-23T20:06:37.930Z,32.80
2022-09-23T20:09:07.022Z,34.03
2022-09-23T20:11:35.238Z,38.72
2022-09-23T20:14:05.792Z,33.88
2022-09-23T20:16:38.530Z,33.00
2022-09-23T20:19:08.030Z,33.78
2022-09-23T20:21:36.374Z,33.95
2022-09-23T20:24:06.873Z,35.47
2022-09-23T20:26:52.815Z,36.63
2022-09-23T20:29:21.529Z,36.47
2022-09-23T20:31:49.820Z,37.05
2022-09-23T20:34:19.480Z,37.47
2022-09-23T20:36:47.500Z,37.28
2022-09-23T20:39:15.870Z,37.58
2022-09-23T20:41:43.684Z,38.08
2022-09-23T20:44:13.038Z,40.00
2022-09-23T20:46:46.978Z,39.42
2022-09-23T20:49:17.674Z,39.97
2022-09-23T20:51:48.703Z,42.30
2022-09-23T20:54:18.909Z,37.40
2022-09-23T20:56:47.040Z,33.70
2022-09-23T20:59:17.489Z,33.65
2022-09-23T21:01:45.478Z,33.50
2022-09-23T21:04:13.773Z,34.35
2022-09-23T21:06:41.730Z,35.30
2022-09-23T21:09:10.998Z,32.83
2022-09-23T21:11:39.399Z,37.10
2022-09-23T21:14:07.531Z,35.75
2022-09-23T21:16:35.461Z,37.88
2022-09-23T21:19:07.956Z,36.47
2022-09-23T21:21:36.670Z,32.83
2022-09-23T21:24:31.317Z,31.98
2022-09-23T21:26:54.227Z,32.33
2022-09-23T21:29:22.982Z,31.83
2022-09-23T21:31:50.866Z,35.03
2022-09-23T21:34:19.672Z,31.27
2022-09-23T21:36:48.769Z,32.22
2022-09-23T21:39:16.628Z,29.77
2022-09-23T21:41:44.836Z,29.83
2022-09-23T21:44:14.372Z,29.77
2022-09-23T21:46:42.563Z,29.00
2022-09-23T21:49:10.772Z,27.88
2022-09-23T21:51:41.463Z,27.13
2022-09-23T21:54:14.431Z,25.50
2022-09-23T21:56:43.866Z,25.85
2022-09-23T21:59:11.925Z,24.65
2022-09-23T22:01:43.601Z,24.92
2022-09-23T22:04:15.581Z,25.88
2022-09-23T22:06:43.933Z,26.27
2022-09-23T22:09:14.212Z,24.58
2022-09-23T22:12:00.673Z,22.02
2022-09-23T22:14:30.440Z,23.73
2022-09-23T22:17:02.589Z,21.92
2022-09-23T22:19:34.849Z,23.73
2022-09-23T22:22:06.669Z,23.40
2022-09-23T22:24:34.808Z,23.52
2022-09-23T22:27:02.650Z,24.40
2022-09-23T22:29:48.349Z,24.85
2022-09-23T22:32:35.443Z,24.27
2022-09-23T22:35:03.558Z,23.15
2022-09-23T22:37:34.110Z,23.42
2022-09-23T22:40:02.694Z,22.80
2022-09-23T22:42:30.947Z,21.98
2022-09-23T22:44:58.973Z,22.48
2022-09-23T22:47:28.361Z,21.17
2022-09-23T22:49:56.276Z,23.45
2022-09-23T22:52:25.153Z,22.77
2022-09-23T22:54:53.453Z,22.50
2022-09-23T22:57:21.392Z,23.50
2022-09-23T22:59:49.509Z,23.15
2022-09-23T23:02:18.095Z,24.40
2022-09-23T23:04:48.475Z,24.42
2022-09-23T23:07:20.367Z,24.30
2022-09-23T23:09:48.671Z,25.15
2022-09-23T23:12:16.845Z,23.25
2022-09-23T23:14:45.210Z,23.40
2022-09-23T23:17:13.218Z,23.20
2022-09-23T23:19:41.162Z,23.83
2022-09-23T23:22:10.623Z,22.33
2022-09-23T23:24:38.533Z,21.83
2022-09-23T23:27:06.333Z,21.38
2022-09-23T23:29:34.414Z,21.27
2022-09-23T23:32:02.908Z,22.50
2022-09-23T23:34:30.678Z,21.52
2022-09-23T23:36:58.655Z,20.98
2022-09-23T23:39:28.056Z,21.13
2022-09-23T23:41:57.454Z,23.98
2022-09-23T23:44:26.831Z,23.88
2022-09-23T23:46:55.638Z,24.33
2022-09-23T23:49:25.615Z,24.77
2022-09-23T23:51:53.689Z,24.10
2022-09-23T23:54:21.705Z,23.30
2022-09-23T23:56:50.984Z,23.27
2022-09-23T23:59:20.142Z,21.35
